createdAt,value
2022-09-02T00:00:10.296Z,100221.28
2022-09-02T00:02:39.497Z,100207.22
2022-09-02T00:05:07.605Z,100151.72
2022-09-02T00:07:35.330Z,100190.56
2022-09-02T00:10:03.062Z,100098.59
2022-09-02T00:12:30.759Z,100187.09
2022-09-02T00:14:58.515Z,100165.94
2022-09-02T00:17:26.487Z,100193.22
2022-09-02T00:19:56.290Z,100159.69
2022-09-02T00:22:24.113Z,100158.88
2022-09-02T00:24:51.983Z,100104.50
2022-09-02T00:27:19.706Z,100193.53
2022-09-02T00:29:47.558Z,100125.47
2022-09-02T00:32:15.353Z,100151.06
2022-09-02T00:34:43.027Z,100171.16
2022-09-02T00:37:11.667Z,100189.19
2022-09-02T00:39:39.873Z,100100.31
2022-09-02T00:42:07.793Z,100140.66
2022-09-02T00:44:35.641Z,100106.44
2022-09-02T00:47:03.749Z,100167.69
2022-09-02T00:49:35.209Z,100130.78
2022-09-02T00:52:08.753Z,100182.44
2022-09-02T00:54:41.419Z,100182.81
2022-09-02T00:57:13.574Z,100132.75
2022-09-02T01:00:02.528Z,100155.75
2022-09-02T01:02:31.875Z,100164.03
2022-09-02T01:05:00.972Z,100158.97
2022-09-02T01:07:34.035Z,100171.41
2022-09-02T01:10:03.168Z,100156.88
2022-09-02T01:12:32.493Z,100114.72
2022-09-02T01:15:01.004Z,100083.31
2022-09-02T01:17:29.112Z,100162.69
2022-09-02T01:20:05.219Z,100161.88
2022-09-02T01:22:34.217Z,100122.22
2022-09-02T01:25:09.858Z,100169.00
2022-09-02T01:27:38.542Z,100169.00
2022-09-02T01:30:08.771Z,100145.41
2022-09-02T01:32:36.677Z,100157.69
2022-09-02T01:35:05.702Z,100169.38
2022-09-02T01:37:34.046Z,100149.16
2022-09-02T01:40:02.451Z,100131.00
2022-09-02T01:42:30.933Z,100178.78
2022-09-02T01:44:58.771Z,100058.94
2022-09-02T01:47:27.799Z,100161.44
2022-09-02T01:49:56.170Z,100165.81
2022-09-02T01:52:25.600Z,100118.78
2022-09-02T01:54:53.583Z,100064.19
2022-09-02T01:57:24.667Z,100112.97
2022-09-02T01:59:53.920Z,100091.03
2022-09-02T02:02:24.563Z,100100.66
2022-09-02T02:04:53.900Z,100106.59
2022-09-02T02:07:22.997Z,100165.81
2022-09-02T02:09:52.104Z,100097.78
2022-09-02T02:12:20.334Z,100047.47
2022-09-02T02:14:48.888Z,100153.16
2022-09-02T02:17:17.094Z,100090.31
2022-09-02T02:19:44.936Z,100076.34
2022-09-02T02:22:14.262Z,100136.97
2022-09-02T02:24:41.965Z,100096.25
2022-09-02T02:27:09.646Z,100132.19
2022-09-02T02:29:37.418Z,100163.38
2022-09-02T02:32:08.047Z,100124.00
2022-09-02T02:34:36.177Z,100099.75
2022-09-02T02:37:06.469Z,100146.94
2022-09-02T02:39:34.168Z,100143.81
2022-09-02T02:42:02.887Z,100169.28
2022-09-02T02:44:31.603Z,100144.53
2022-09-02T02:47:00.909Z,100163.38
2022-09-02T02:49:28.689Z,100135.31
2022-09-02T02:51:56.297Z,100130.59
2022-09-02T02:54:24.268Z,100118.94
2022-09-02T02:57:04.497Z,100163.38
2022-09-02T02:59:32.865Z,100137.94
2022-09-02T03:02:00.999Z,100141.69
2022-09-02T03:04:28.771Z,100148.78
2022-09-02T03:06:56.468Z,100120.34
2022-09-02T03:09:24.512Z,100084.97
2022-09-02T03:11:53.070Z,100073.75
2022-09-02T03:14:20.863Z,100097.38
2022-09-02T03:16:48.586Z,100084.00
2022-09-02T03:19:18.862Z,100131.97
2022-09-02T03:21:46.969Z,100138.13
2022-09-02T03:24:15.028Z,100064.34
2022-09-02T03:26:43.723Z,100082.66
2022-09-02T03:29:12.454Z,100084.34
2022-09-02T03:31:40.851Z,100153.44
2022-09-02T03:34:08.790Z,100090.91
2022-09-02T03:36:40.794Z,100099.91
2022-09-02T03:39:12.071Z,100131.09
2022-09-02T03:41:42.368Z,100039.53
2022-09-02T03:44:11.891Z,100140.31
2022-09-02T03:46:40.810Z,100149.06
2022-09-02T03:49:08.811Z,100148.25
2022-09-02T03:51:41.194Z,100131.44
2022-09-02T03:54:10.391Z,100126.41
2022-09-02T03:56:39.244Z,100137.56
2022-09-02T03:59:08.381Z,100119.25
2022-09-02T04:01:36.710Z,100103.09
2022-09-02T04:04:06.547Z,100143.88
2022-09-02T04:06:36.395Z,100141.50
2022-09-02T04:09:05.204Z,100123.91
2022-09-02T04:11:35.488Z,100124.13
2022-09-02T04:14:03.310Z,100090.75
2022-09-02T04:16:34.030Z,100080.16
2022-09-02T04:19:07.516Z,100120.56
2022-09-02T04:21:38.007Z,100119.78
2022-09-02T04:24:09.416Z,100009.50
2022-09-02T04:26:44.819Z,100120.56
2022-09-02T04:29:14.118Z,100119.34
2022-09-02T04:31:49.259Z,100027.91
2022-09-02T04:34:26.930Z,100081.84
2022-09-02T04:36:59.097Z,100055.81
2022-09-02T04:39:26.718Z,100008.25
2022-09-02T04:41:58.542Z,100109.47
2022-09-02T04:44:27.342Z,100104.75
2022-09-02T04:46:55.072Z,100088.59
2022-09-02T04:49:23.991Z,100098.28
2022-09-02T04:51:54.725Z,100063.47
2022-09-02T04:54:24.956Z,100105.91
2022-09-02T04:56:54.057Z,100090.38
2022-09-02T04:59:24.228Z,100083.94
2022-09-02T05:02:08.784Z,99940.16
2022-09-02T05:04:37.081Z,100095.22
2022-09-02T05:07:08.696Z,100084.75
2022-09-02T05:10:41.374Z,100094.41
2022-09-02T05:13:33.482Z,100044.63
2022-09-02T05:16:01.687Z,99995.13
2022-09-02T05:18:31.430Z,100061.22
2022-09-02T05:20:59.604Z,99999.19
2022-09-02T05:23:27.986Z,100013.59
2022-09-02T05:25:56.625Z,100053.94
2022-09-02T05:28:25.220Z,100031.19
2022-09-02T05:30:53.210Z,100091.97
2022-09-02T05:33:23.137Z,99868.56
2022-09-02T05:35:53.461Z,100034.81
2022-09-02T05:38:21.813Z,100096.31
2022-09-02T05:40:50.089Z,100026.75
2022-09-02T05:43:19.399Z,99970.34
2022-09-02T05:45:49.331Z,99948.84
2022-09-02T05:48:36.528Z,100089.91
2022-09-02T05:51:05.992Z,100065.84
2022-09-02T05:53:35.413Z,100079.38
2022-09-02T05:56:06.876Z,100045.41
2022-09-02T05:58:35.779Z,100075.81
2022-09-02T06:01:11.286Z,99982.19
2022-09-02T06:03:39.610Z,100074.75
2022-09-02T06:06:08.895Z,100096.56
2022-09-02T06:08:41.525Z,100059.63
2022-09-02T06:11:12.188Z,100116.09
2022-09-02T06:13:43.019Z,100113.72
2022-09-02T06:16:18.199Z,100128.72
2022-09-02T06:18:50.040Z,100070.41
2022-09-02T06:21:20.965Z,100121.25
2022-09-02T06:23:52.413Z,100083.97
2022-09-02T06:26:20.895Z,100125.59
2022-09-02T06:28:49.300Z,100090.28
2022-09-02T06:31:20.703Z,100055.03
2022-09-02T06:33:53.414Z,100037.19
2022-09-02T06:36:28.297Z,100117.31
2022-09-02T06:39:00.090Z,100113.53
2022-09-02T06:41:34.521Z,100118.44
2022-09-02T06:44:07.788Z,100102.34
2022-09-02T06:46:44.525Z,100123.84
2022-09-02T06:49:17.536Z,100108.59
2022-09-02T06:51:52.439Z,100111.78
2022-09-02T06:54:23.057Z,100108.75
2022-09-02T06:56:58.714Z,100098.97
2022-09-02T06:59:28.970Z,100098.97
2022-09-02T07:02:00.438Z,100092.31
2022-09-02T07:04:51.239Z,100116.50
2022-09-02T07:07:25.560Z,100081.63
2022-09-02T07:10:13.182Z,100071.19
2022-09-02T07:12:44.554Z,100045.25
2022-09-02T07:15:18.707Z,100093.78
2022-09-02T07:17:51.426Z,100078.16
2022-09-02T07:20:28.796Z,100108.34
2022-09-02T07:23:03.472Z,100107.19
2022-09-02T07:25:37.240Z,100035.81
2022-09-02T07:28:15.845Z,100095.25
2022-09-02T07:30:45.160Z,100086.97
2022-09-02T07:33:16.857Z,100040.69
2022-09-02T07:35:46.703Z,100107.34
2022-09-02T07:38:18.433Z,100091.06
2022-09-02T07:40:47.428Z,100067.25
2022-09-02T07:43:16.634Z,99999.72
2022-09-02T07:45:45.200Z,100061.66
2022-09-02T07:48:15.251Z,99980.09
2022-09-02T07:50:44.251Z,100113.81
2022-09-02T07:53:16.725Z,100114.25
2022-09-02T07:55:47.312Z,100106.75
2022-09-02T07:58:17.601Z,100115.06
2022-09-02T08:00:45.719Z,100122.97
2022-09-02T08:03:15.691Z,100133.56
2022-09-02T08:05:49.181Z,100098.47
2022-09-02T08:08:20.501Z,100145.03
2022-09-02T08:10:50.803Z,100147.47
2022-09-02T08:13:19.301Z,100141.13
2022-09-02T08:15:50.861Z,100136.16
2022-09-02T08:18:22.650Z,100152.63
2022-09-02T08:20:51.223Z,100095.75
2022-09-02T08:23:33.608Z,100156.22
2022-09-02T08:26:05.807Z,100114.72
2022-09-02T08:28:33.853Z,100153.88
2022-09-02T08:31:05.240Z,100158.25
2022-09-02T08:33:33.150Z,100151.56
2022-09-02T08:36:11.244Z,100117.50
2022-09-02T08:38:38.990Z,100133.94
2022-09-02T08:41:37.562Z,100055.03
2022-09-02T08:44:07.321Z,100137.94
2022-09-02T08:46:36.143Z,100144.00
2022-09-02T08:49:08.837Z,100137.13
2022-09-02T08:51:56.297Z,100143.72
2022-09-02T08:54:36.741Z,100059.81
2022-09-02T08:57:05.477Z,100133.50
2022-09-02T08:59:33.412Z,100037.59
2022-09-02T09:02:22.687Z,100142.78
2022-09-02T09:05:19.400Z,100143.59
2022-09-02T09:07:57.726Z,100166.03
2022-09-02T09:10:53.282Z,100156.59
2022-09-02T09:13:48.740Z,100114.63
2022-09-02T09:16:34.343Z,100155.06
2022-09-02T09:19:44.367Z,100160.56
2022-09-02T09:22:16.655Z,100106.91
2022-09-02T09:24:46.714Z,100157.81
2022-09-02T09:27:24.048Z,100145.91
2022-09-02T09:29:52.676Z,100163.81
2022-09-02T09:32:26.647Z,100159.41
2022-09-02T09:34:57.530Z,100157.91
2022-09-02T09:37:45.813Z,100156.75
2022-09-02T09:40:24.817Z,100123.25
2022-09-02T09:43:14.598Z,100094.28
2022-09-02T09:45:45.878Z,100145.91
2022-09-02T09:48:29.199Z,100102.78
2022-09-02T09:50:58.067Z,100155.31
2022-09-02T09:53:30.103Z,100158.13
2022-09-02T09:56:26.740Z,100156.97
2022-09-02T09:58:54.696Z,100142.13
2022-09-02T10:01:31.263Z,100154.63
2022-09-02T10:04:02.044Z,100151.88
2022-09-02T10:06:30.088Z,100158.56
2022-09-02T10:09:14.257Z,100093.88
2022-09-02T10:11:54.502Z,100158.63
2022-09-02T10:14:23.743Z,100155.50
2022-09-02T10:17:10.559Z,100148.81
2022-09-02T10:19:52.295Z,100148.25
2022-09-02T10:22:58.429Z,100154.78
2022-09-02T10:26:07.903Z,100141.75
2022-09-02T10:28:54.355Z,100146.47
2022-09-02T10:31:41.510Z,100138.19
2022-09-02T10:34:21.252Z,100137.78
2022-09-02T10:37:00.876Z,100137.34
2022-09-02T10:39:56.417Z,100139.75
2022-09-02T10:42:39.674Z,100146.47
2022-09-02T10:45:18.046Z,100134.63
2022-09-02T10:48:03.808Z,100120.25
2022-09-02T10:50:42.645Z,100139.44
2022-09-02T10:53:15.263Z,100131.22
2022-09-02T10:55:59.470Z,100117.03
2022-09-02T10:58:45.342Z,100120.25
2022-09-02T11:01:20.810Z,100119.16
2022-09-02T11:03:58.489Z,100037.59
2022-09-02T11:06:40.206Z,100109.22
2022-09-02T11:09:33.310Z,100117.72
2022-09-02T11:12:11.856Z,100035.91
2022-09-02T11:14:51.672Z,100104.72
2022-09-02T11:17:28.784Z,100110.28
2022-09-02T11:20:04.013Z,100104.75
2022-09-02T11:22:45.338Z,100026.47
2022-09-02T11:25:18.318Z,100105.63
2022-09-02T11:27:59.983Z,100113.56
2022-09-02T11:30:37.877Z,100057.75
2022-09-02T11:33:39.838Z,100097.34
2022-09-02T11:36:08.052Z,100009.84
2022-09-02T11:38:41.819Z,100104.91
2022-09-02T11:41:35.808Z,100115.94
2022-09-02T11:44:41.105Z,100114.78
2022-09-02T11:47:27.385Z,100111.66
2022-09-02T11:50:39.526Z,100073.09
2022-09-02T11:53:31.205Z,100090.03
2022-09-02T11:56:04.384Z,100090.50
2022-09-02T11:58:33.921Z,100083.00
2022-09-02T12:01:28.247Z,100070.66
2022-09-02T12:04:48.571Z,100084.22
2022-09-02T12:07:09.447Z,100076.34
2022-09-02T12:12:37.658Z,100077.59
2022-09-02T12:15:05.977Z,100071.31
2022-09-02T12:17:40.156Z,100074.09
2022-09-02T12:20:38.573Z,100067.81
2022-09-02T12:23:08.349Z,100072.53
2022-09-02T12:25:49.178Z,99970.72
2022-09-02T12:28:30.673Z,100077.34
2022-09-02T12:31:18.018Z,100072.94
2022-09-02T12:33:51.887Z,100045.47
2022-09-02T12:36:39.288Z,100066.72
2022-09-02T12:39:27.554Z,100061.97
2022-09-02T12:42:12.987Z,100067.88
2022-09-02T12:45:02.209Z,100054.06
2022-09-02T12:48:02.689Z,100058.16
2022-09-02T12:50:49.623Z,100066.59
2022-09-02T12:53:40.371Z,99991.53
2022-09-02T12:56:23.350Z,100047.00
2022-09-02T12:58:55.308Z,99987.19
2022-09-02T13:01:59.356Z,100030.75
2022-09-02T13:05:28.747Z,100046.75
2022-09-02T13:08:05.468Z,100049.13
2022-09-02T13:10:33.165Z,100036.13
2022-09-02T13:13:32.816Z,100011.75
2022-09-02T13:16:19.427Z,100043.72
2022-09-02T13:19:02.515Z,100034.63
2022-09-02T13:21:36.220Z,100025.16
2022-09-02T13:24:14.513Z,100023.94
2022-09-02T13:27:01.141Z,100015.28
2022-09-02T13:29:38.072Z,100009.75
2022-09-02T13:32:23.641Z,99987.47
2022-09-02T13:34:55.703Z,99984.84
2022-09-02T13:37:32.786Z,99999.81
2022-09-02T13:40:05.578Z,99989.38
2022-09-02T13:42:33.392Z,99998.66
2022-09-02T13:45:16.204Z,99991.53
2022-09-02T13:47:46.994Z,99979.16
2022-09-02T13:50:21.796Z,99991.91
2022-09-02T13:55:54.025Z,99974.09
2022-09-02T13:58:31.171Z,99968.56
2022-09-02T14:01:17.910Z,99964.88
2022-09-02T14:03:51.987Z,99946.97
2022-09-02T14:06:27.941Z,99923.66
2022-09-02T14:09:06.766Z,99959.88
2022-09-02T14:11:45.775Z,99919.59
2022-09-02T14:14:20.214Z,99959.06
2022-09-02T14:16:48.212Z,99908.78
2022-09-02T14:19:18.722Z,99934.09
2022-09-02T14:21:52.192Z,99876.28
2022-09-02T14:24:37.225Z,99782.38
2022-09-02T14:27:17.859Z,99900.88
2022-09-02T14:29:47.507Z,99930.34
2022-09-02T14:32:21.927Z,99947.34
2022-09-02T14:35:08.663Z,99939.78
2022-09-02T14:37:55.835Z,99934.16
2022-09-02T14:40:43.548Z,99930.00
2022-09-02T14:43:16.400Z,99948.22
2022-09-02T14:45:49.073Z,99898.75
2022-09-02T14:48:24.066Z,99940.97
2022-09-02T14:51:05.675Z,99952.38
2022-09-02T14:53:37.578Z,99940.09
2022-09-02T14:56:06.222Z,99919.81
2022-09-02T14:58:34.427Z,99912.81
2022-09-02T15:01:02.542Z,99939.84
2022-09-02T15:03:32.804Z,99948.34
2022-09-02T15:06:00.730Z,99893.28
2022-09-02T15:08:28.513Z,99953.50
2022-09-02T15:11:00.024Z,99912.44
2022-09-02T15:13:32.717Z,99963.72
2022-09-02T15:16:01.171Z,99949.59
2022-09-02T15:18:28.999Z,99952.56
2022-09-02T15:20:57.667Z,99911.44
2022-09-02T15:23:28.647Z,99943.03
2022-09-02T15:25:57.835Z,99868.53
2022-09-02T15:28:25.534Z,99888.50
2022-09-02T15:31:00.875Z,99932.19
2022-09-02T15:33:29.302Z,99989.75
2022-09-02T15:36:12.967Z,99933.78
2022-09-02T15:38:41.469Z,99997.06
2022-09-02T15:41:20.399Z,99989.06
2022-09-02T15:43:48.929Z,100008.16
2022-09-02T15:46:29.731Z,100018.84
2022-09-02T15:49:02.830Z,100029.91
2022-09-02T15:51:31.787Z,100008.78
2022-09-02T15:54:02.141Z,99977.78
2022-09-02T15:56:33.336Z,99957.94
2022-09-02T15:59:22.342Z,99976.63
2022-09-02T16:01:52.368Z,99982.56
2022-09-02T16:04:20.158Z,99995.59
2022-09-02T16:06:49.845Z,99998.78
2022-09-02T16:09:18.330Z,99969.31
2022-09-02T16:11:52.024Z,99966.66
2022-09-02T16:14:21.466Z,99935.91
2022-09-02T16:16:51.085Z,99950.88
2022-09-02T16:19:21.685Z,99970.84
2022-09-02T16:21:53.435Z,99997.19
2022-09-02T16:24:22.931Z,99944.56
2022-09-02T16:26:51.667Z,99940.09
2022-09-02T16:29:19.933Z,99967.84
2022-09-02T16:32:02.349Z,99982.66
2022-09-02T16:34:37.347Z,99982.28
2022-09-02T16:37:05.914Z,99955.13
2022-09-02T16:39:34.013Z,99944.53
2022-09-02T16:42:04.735Z,100012.59
2022-09-02T16:44:34.315Z,99982.56
2022-09-02T16:47:02.022Z,99899.06
2022-09-02T16:49:29.877Z,99923.78
2022-09-02T16:51:59.759Z,99820.94
2022-09-02T16:54:32.957Z,99926.03
2022-09-02T16:57:02.109Z,99893.59
2022-09-02T16:59:31.925Z,99933.03
2022-09-02T17:01:59.940Z,99934.41
2022-09-02T17:04:27.840Z,99906.09
2022-09-02T17:06:57.313Z,99837.44
2022-09-02T17:09:25.585Z,99861.38
2022-09-02T17:11:54.146Z,99869.31
2022-09-02T17:14:22.308Z,99939.97
2022-09-02T17:16:51.737Z,99946.63
2022-09-02T17:19:21.827Z,99987.69
2022-09-02T17:21:52.579Z,99911.31
2022-09-02T17:24:28.298Z,99896.28
2022-09-02T17:26:56.669Z,99960.84
2022-09-02T17:29:49.602Z,99963.31
2022-09-02T17:32:18.843Z,99961.81
2022-09-02T17:34:48.974Z,99928.19
2022-09-02T17:37:17.313Z,99958.50
2022-09-02T17:39:46.145Z,99974.47
2022-09-02T17:42:15.328Z,99989.06
2022-09-02T17:44:43.262Z,99996.09
2022-09-02T17:47:17.374Z,99997.59
2022-09-02T17:49:45.138Z,99955.78
2022-09-02T17:52:15.367Z,99977.41
2022-09-02T17:54:43.571Z,99970.91
2022-09-02T17:57:33.425Z,100000.25
2022-09-02T18:00:11.887Z,100006.94
2022-09-02T18:03:01.294Z,100013.63
2022-09-02T18:06:04.016Z,100012.78
2022-09-02T18:09:04.130Z,100033.25
2022-09-02T18:11:32.002Z,99958.13
2022-09-02T18:14:40.923Z,100038.63
2022-09-02T18:17:23.699Z,99963.13
2022-09-02T18:19:54.446Z,100038.53
2022-09-02T18:22:25.346Z,100032.13
2022-09-02T18:25:21.524Z,100034.47
2022-09-02T18:28:02.890Z,100025.75
2022-09-02T18:31:10.482Z,100022.53
2022-09-02T18:33:38.065Z,100026.47
2022-09-02T18:36:18.173Z,100023.34
2022-09-02T18:38:52.009Z,100024.13
2022-09-02T18:41:23.189Z,100032.00
2022-09-02T18:44:24.961Z,100026.91
2022-09-02T18:47:05.474Z,100034.38
2022-09-02T18:49:37.380Z,100022.06
2022-09-02T18:52:10.882Z,100029.66
2022-09-02T18:55:00.290Z,100015.66
2022-09-02T18:57:33.654Z,99994.16
2022-09-02T19:00:10.287Z,100018.56
2022-09-02T19:02:50.573Z,100012.59
2022-09-02T19:05:26.738Z,100018.50
2022-09-02T19:08:32.898Z,100007.00
2022-09-02T19:11:19.534Z,99980.44
2022-09-02T19:13:51.376Z,99993.94
2022-09-02T19:16:24.474Z,100028.28
2022-09-02T19:18:53.131Z,100025.16
2022-09-02T19:21:37.011Z,100027.13
2022-09-02T19:24:11.814Z,99956.91
2022-09-02T19:26:46.130Z,100024.03
2022-09-02T19:29:19.040Z,100014.44
2022-09-02T19:31:54.842Z,99983.47
2022-09-02T19:34:24.278Z,99986.22
2022-09-02T19:36:55.960Z,99975.78
2022-09-02T19:39:23.850Z,100011.78
2022-09-02T19:41:54.254Z,99959.03
2022-09-02T19:44:22.103Z,100036.44
2022-09-02T19:48:02.830Z,99966.19
2022-09-02T19:49:38.285Z,99986.97
2022-09-02T19:52:05.971Z,100026.56
2022-09-02T19:54:33.897Z,100003.50
2022-09-02T19:57:02.910Z,100032.44
2022-09-02T19:59:34.229Z,100035.56
2022-09-02T20:02:04.781Z,100040.44
2022-09-02T20:04:33.422Z,100024.41
2022-09-02T20:07:02.163Z,100043.19
2022-09-02T20:09:30.255Z,100054.25
2022-09-02T20:11:57.932Z,100038.66
2022-09-02T20:14:26.518Z,99970.84
2022-09-02T20:17:02.483Z,99985.66
2022-09-02T20:19:31.601Z,100010.94
2022-09-02T20:22:00.075Z,99941.44
2022-09-02T20:24:33.968Z,99891.84
2022-09-02T20:27:25.547Z,100037.22
2022-09-02T20:30:09.288Z,99970.09
2022-09-02T20:32:56.903Z,99979.59
2022-09-02T20:35:40.273Z,100044.28
2022-09-02T20:38:40.705Z,100056.13
2022-09-02T20:41:13.442Z,100055.69
2022-09-02T20:44:11.542Z,100058.44
2022-09-02T20:47:27.195Z,100046.94
2022-09-02T20:50:21.802Z,100048.91
2022-09-02T20:53:22.165Z,100050.88
2022-09-02T20:56:11.010Z,100050.88
2022-09-02T21:01:57.138Z,100059.16
2022-09-02T21:04:44.375Z,100057.97
2022-09-02T21:07:41.870Z,100050.50
2022-09-02T21:10:22.346Z,100055.31
2022-09-02T21:13:22.391Z,99947.06
2022-09-02T21:16:10.243Z,100025.66
2022-09-02T21:19:02.231Z,100019.34
2022-09-02T21:22:07.355Z,100044.19
2022-09-02T21:25:13.714Z,100032.00
2022-09-02T21:27:58.082Z,100045.50
2022-09-02T21:30:37.201Z,99977.88
2022-09-02T21:33:13.793Z,99983.03
2022-09-02T21:35:54.080Z,100025.53
2022-09-02T21:38:47.673Z,100016.75
2022-09-02T21:41:40.829Z,100019.16
2022-09-02T21:44:35.462Z,99984.63
2022-09-02T21:47:41.191Z,100019.44
2022-09-02T21:50:22.074Z,99965.47
2022-09-02T21:53:12.585Z,99997.84
2022-09-02T21:56:06.853Z,100003.13
2022-09-02T21:58:53.380Z,100009.03
2022-09-02T22:01:47.430Z,100004.66
2022-09-02T22:04:38.616Z,100000.53
2022-09-02T22:07:38.379Z,100006.00
2022-09-02T22:10:21.909Z,99995.75
2022-09-02T22:12:52.506Z,100003.25
2022-09-02T22:15:26.683Z,100016.88
2022-09-02T22:18:22.970Z,99996.03
2022-09-02T22:21:04.313Z,100032.25
2022-09-02T22:23:48.836Z,100041.72
2022-09-02T22:26:35.665Z,100039.22
2022-09-02T22:29:18.667Z,100014.59
2022-09-02T22:31:54.759Z,99987.63
2022-09-02T22:34:24.495Z,100057.09
2022-09-02T22:37:00.492Z,100051.56
2022-09-02T22:39:52.814Z,100012.25
2022-09-02T22:42:37.762Z,100077.38
2022-09-02T22:45:39.917Z,100081.72
2022-09-02T22:48:40.757Z,100035.97
2022-09-02T22:51:39.346Z,100101.41
2022-09-02T22:54:07.172Z,100018.66
2022-09-02T22:57:10.375Z,100099.81
2022-09-02T23:00:02.679Z,100098.91
2022-09-02T23:03:05.503Z,100105.31
2022-09-02T23:05:55.050Z,100114.72
2022-09-02T23:08:24.769Z,100107.25
2022-09-02T23:11:07.004Z,100025.31
2022-09-02T23:13:56.408Z,100124.19
2022-09-02T23:16:35.341Z,100120.81
2022-09-02T23:19:41.416Z,99998.53
2022-09-02T23:22:44.712Z,100132.44
2022-09-02T23:25:14.070Z,100139.94
2022-09-02T23:27:51.922Z,100142.69
2022-09-02T23:30:19.841Z,100105.19
2022-09-02T23:33:10.236Z,100075.84
2022-09-02T23:36:03.166Z,100145.38
2022-09-02T23:38:43.352Z,100149.31
2022-09-02T23:41:12.895Z,100143.00
2022-09-02T23:43:44.269Z,100143.31
2022-09-02T23:46:56.989Z,100106.25
2022-09-02T23:49:47.307Z,100152.41
2022-09-02T23:52:36.854Z,100158.28
2022-09-02T23:55:24.299Z,100153.91
2022-09-02T23:58:19.467Z,100147.25
